sensor_id;sensor_type;location;lat;lon;timestamp;pressure;altitude;pressure_sealevel;temperature;humidity
55066;BME280;40964;42.114;24.220;2023-09-18T00:02:18;98345.88;;;19.06;89.89
55066;BME280;40964;42.114;24.220;2023-09-18T00:04:44;98340.75;;;18.99;90.43
55066;BME280;40964;42.114;24.220;2023-09-18T00:07:09;98343.16;;;19.01;90.32
55066;BME280;40964;42.114;24.220;2023-09-18T00:09:36;98342.31;;;18.95;90.51
55066;BME280;40964;42.114;24.220;2023-09-18T00:12:01;98347.41;;;19.02;90.37
55066;BME280;40964;42.114;24.220;2023-09-18T00:14:27;98333.78;;;18.93;90.56
55066;BME280;40964;42.114;24.220;2023-09-18T00:16:52;98337.75;;;18.91;90.58
55066;BME280;40964;42.114;24.220;2023-09-18T00:19:18;98332.94;;;18.88;91.13
55066;BME280;40964;42.114;24.220;2023-09-18T00:21:43;98333.16;;;18.81;91.65
55066;BME280;40964;42.114;24.220;2023-09-18T00:24:09;98341.44;;;18.85;91.37
55066;BME280;40964;42.114;24.220;2023-09-18T00:26:34;98339.84;;;18.84;91.84
55066;BME280;40964;42.114;24.220;2023-09-18T00:29:13;98336.38;;;18.83;91.90
55066;BME280;40964;42.114;24.220;2023-09-18T00:31:44;98348.84;;;18.78;92.17
55066;BME280;40964;42.114;24.220;2023-09-18T00:34:11;98340.56;;;18.74;92.62
55066;BME280;40964;42.114;24.220;2023-09-18T00:36:47;98344.56;;;18.71;92.80
55066;BME280;40964;42.114;24.220;2023-09-18T00:39:13;98348.22;;;18.65;93.06
55066;BME280;40964;42.114;24.220;2023-09-18T00:41:39;98347.91;;;18.62;93.43
55066;BME280;40964;42.114;24.220;2023-09-18T00:44:06;98333.19;;;18.54;93.83
55066;BME280;40964;42.114;24.220;2023-09-18T00:46:32;98336.94;;;18.58;93.80
55066;BME280;40964;42.114;24.220;2023-09-18T00:48:58;98345.03;;;18.68;93.87
55066;BME280;40964;42.114;24.220;2023-09-18T00:51:24;98341.03;;;18.66;93.53
55066;BME280;40964;42.114;24.220;2023-09-18T00:53:50;98343.13;;;18.64;93.86
55066;BME280;40964;42.114;24.220;2023-09-18T00:56:17;98338.06;;;18.62;93.98
55066;BME280;40964;42.114;24.220;2023-09-18T00:58:44;98343.38;;;18.62;93.40
55066;BME280;40964;42.114;24.220;2023-09-18T01:01:11;98342.53;;;18.57;94.23
55066;BME280;40964;42.114;24.220;2023-09-18T01:03:37;98337.53;;;18.60;93.97
55066;BME280;40964;42.114;24.220;2023-09-18T01:06:02;98347.03;;;18.51;94.80
55066;BME280;40964;42.114;24.220;2023-09-18T01:08:28;98348.88;;;18.51;94.73
55066;BME280;40964;42.114;24.220;2023-09-18T01:11:01;98354.00;;;18.57;94.91
55066;BME280;40964;42.114;24.220;2023-09-18T01:13:35;98353.78;;;18.64;94.63
55066;BME280;40964;42.114;24.220;2023-09-18T01:16:10;98346.38;;;18.66;94.47
55066;BME280;40964;42.114;24.220;2023-09-18T01:18:48;98347.66;;;18.63;94.39
55066;BME280;40964;42.114;24.220;2023-09-18T01:21:14;98354.53;;;18.59;93.38
55066;BME280;40964;42.114;24.220;2023-09-18T01:23:40;98342.63;;;18.67;93.01
55066;BME280;40964;42.114;24.220;2023-09-18T01:26:05;98347.97;;;18.67;92.87
55066;BME280;40964;42.114;24.220;2023-09-18T01:28:31;98339.50;;;18.70;92.83
55066;BME280;40964;42.114;24.220;2023-09-18T01:30:56;98343.56;;;18.83;92.35
55066;BME280;40964;42.114;24.220;2023-09-18T01:33:23;98340.38;;;18.86;92.70
55066;BME280;40964;42.114;24.220;2023-09-18T01:35:51;98338.28;;;18.88;92.01
55066;BME280;40964;42.114;24.220;2023-09-18T01:38:20;98331.56;;;18.85;91.89
55066;BME280;40964;42.114;24.220;2023-09-18T01:40:47;98331.25;;;18.77;92.28
55066;BME280;40964;42.114;24.220;2023-09-18T01:43:13;98333.34;;;18.69;92.98
55066;BME280;40964;42.114;24.220;2023-09-18T01:45:39;98320.72;;;18.60;92.92
55066;BME280;40964;42.114;24.220;2023-09-18T01:48:05;98333.78;;;18.61;93.21
55066;BME280;40964;42.114;24.220;2023-09-18T01:50:31;98340.25;;;18.65;93.71
55066;BME280;40964;42.114;24.220;2023-09-18T01:52:58;98338.13;;;18.67;93.40
55066;BME280;40964;42.114;24.220;2023-09-18T01:55:24;98335.44;;;18.67;94.22
55066;BME280;40964;42.114;24.220;2023-09-18T01:57:49;98339.19;;;18.66;93.60
55066;BME280;40964;42.114;24.220;2023-09-18T02:00:15;98337.84;;;18.69;94.01
55066;BME280;40964;42.114;24.220;2023-09-18T02:02:41;98334.38;;;18.68;93.48
55066;BME280;40964;42.114;24.220;2023-09-18T02:05:06;98333.38;;;18.75;93.95
55066;BME280;40964;42.114;24.220;2023-09-18T02:07:32;98342.97;;;18.70;93.42
55066;BME280;40964;42.114;24.220;2023-09-18T02:09:57;98336.81;;;18.70;93.53
55066;BME280;40964;42.114;24.220;2023-09-18T02:12:23;98343.44;;;18.67;93.35
55066;BME280;40964;42.114;24.220;2023-09-18T02:14:48;98342.91;;;18.65;93.81
55066;BME280;40964;42.114;24.220;2023-09-18T02:17:14;98337.81;;;18.64;94.11
55066;BME280;40964;42.114;24.220;2023-09-18T02:19:39;98342.78;;;18.55;94.10
55066;BME280;40964;42.114;24.220;2023-09-18T02:22:05;98342.78;;;18.55;94.24
55066;BME280;40964;42.114;24.220;2023-09-18T02:24:30;98344.94;;;18.58;93.80
55066;BME280;40964;42.114;24.220;2023-09-18T02:26:55;98337.81;;;18.64;93.80
55066;BME280;40964;42.114;24.220;2023-09-18T02:29:21;98340.19;;;18.60;93.98
55066;BME280;40964;42.114;24.220;2023-09-18T02:31:48;98344.75;;;18.65;93.63
55066;BME280;40964;42.114;24.220;2023-09-18T02:34:13;98336.03;;;18.69;93.86
55066;BME280;40964;42.114;24.220;2023-09-18T02:36:38;98343.50;;;18.78;93.93
55066;BME280;40964;42.114;24.220;2023-09-18T02:39:04;98345.94;;;18.79;93.34
55066;BME280;40964;42.114;24.220;2023-09-18T02:41:30;98348.78;;;18.67;92.72
55066;BME280;40964;42.114;24.220;2023-09-18T02:43:55;98340.47;;;18.64;92.98
55066;BME280;40964;42.114;24.220;2023-09-18T02:46:21;98359.38;;;18.62;92.92
55066;BME280;40964;42.114;24.220;2023-09-18T02:48:46;98351.94;;;18.64;92.80
55066;BME280;40964;42.114;24.220;2023-09-18T02:51:11;98353.00;;;18.63;93.29
55066;BME280;40964;42.114;24.220;2023-09-18T02:53:37;98351.69;;;18.66;93.04
55066;BME280;40964;42.114;24.220;2023-09-18T02:56:02;98356.22;;;18.65;93.22
55066;BME280;40964;42.114;24.220;2023-09-18T02:58:28;98356.22;;;18.65;93.13
55066;BME280;40964;42.114;24.220;2023-09-18T03:00:56;98354.91;;;18.68;92.95
55066;BME280;40964;42.114;24.220;2023-09-18T03:03:25;98349.03;;;18.66;92.86
55066;BME280;40964;42.114;24.220;2023-09-18T03:05:51;98353.91;;;18.74;93.10
55066;BME280;40964;42.114;24.220;2023-09-18T03:08:16;98355.00;;;18.78;92.44
55066;BME280;40964;42.114;24.220;2023-09-18T03:10:43;98356.84;;;18.78;92.62
55066;BME280;40964;42.114;24.220;2023-09-18T03:13:10;98348.03;;;18.77;92.31
55066;BME280;40964;42.114;24.220;2023-09-18T03:15:36;98353.69;;;18.81;92.30
55066;BME280;40964;42.114;24.220;2023-09-18T03:18:03;98355.22;;;18.77;93.07
55066;BME280;40964;42.114;24.220;2023-09-18T03:20:29;98353.41;;;18.82;93.62
55066;BME280;40964;42.114;24.220;2023-09-18T03:22:56;98358.75;;;18.82;93.42
55066;BME280;40964;42.114;24.220;2023-09-18T03:25:22;98338.78;;;18.85;92.78
55066;BME280;40964;42.114;24.220;2023-09-18T03:27:50;98349.44;;;18.85;91.95
55066;BME280;40964;42.114;24.220;2023-09-18T03:30:16;98347.03;;;18.83;92.35
55066;BME280;40964;42.114;24.220;2023-09-18T03:32:42;98349.16;;;18.86;91.79
55066;BME280;40964;42.114;24.220;2023-09-18T03:35:08;98351.78;;;18.76;91.61
55066;BME280;40964;42.114;24.220;2023-09-18T03:37:41;98346.69;;;18.75;91.98
55066;BME280;40964;42.114;24.220;2023-09-18T03:40:08;98348.84;;;18.78;92.27
55066;BME280;40964;42.114;24.220;2023-09-18T03:42:34;98351.03;;;18.81;92.29
55066;BME280;40964;42.114;24.220;2023-09-18T03:44:59;98355.53;;;18.80;91.74
55066;BME280;40964;42.114;24.220;2023-09-18T03:47:25;98352.34;;;18.78;91.59
55066;BME280;40964;42.114;24.220;2023-09-18T03:49:50;98351.03;;;18.81;91.29
55066;BME280;40964;42.114;24.220;2023-09-18T03:52:16;98341.91;;;18.77;91.37
55066;BME280;40964;42.114;24.220;2023-09-18T03:54:41;98353.34;;;18.72;91.75
55066;BME280;40964;42.114;24.220;2023-09-18T03:57:07;98349.09;;;18.71;91.27
55066;BME280;40964;42.114;24.220;2023-09-18T03:59:32;98345.16;;;18.79;90.79
55066;BME280;40964;42.114;24.220;2023-09-18T04:01:58;98347.56;;;18.80;90.36
55066;BME280;40964;42.114;24.220;2023-09-18T04:04:23;98353.16;;;18.84;90.80
55066;BME280;40964;42.114;24.220;2023-09-18T04:06:49;98359.56;;;18.83;91.01
55066;BME280;40964;42.114;24.220;2023-09-18T04:09:15;98363.81;;;18.84;90.49
55066;BME280;40964;42.114;24.220;2023-09-18T04:11:40;98353.69;;;18.81;90.44
55066;BME280;40964;42.114;24.220;2023-09-18T04:14:06;98350.16;;;18.75;90.78
55066;BME280;40964;42.114;24.220;2023-09-18T04:16:31;98355.28;;;18.82;90.67
55066;BME280;40964;42.114;24.220;2023-09-18T04:19:01;98346.50;;;18.86;91.11
55066;BME280;40964;42.114;24.220;2023-09-18T04:21:27;98350.53;;;18.89;91.10
55066;BME280;40964;42.114;24.220;2023-09-18T04:23:54;98335.34;;;18.89;90.63
55066;BME280;40964;42.114;24.220;2023-09-18T04:26:23;98342.53;;;18.89;89.86
55066;BME280;40964;42.114;24.220;2023-09-18T04:28:49;98345.75;;;18.91;89.86
55066;BME280;40964;42.114;24.220;2023-09-18T04:31:14;98343.38;;;18.94;91.40
55066;BME280;40964;42.114;24.220;2023-09-18T04:33:39;98342.31;;;18.95;92.06
55066;BME280;40964;42.114;24.220;2023-09-18T04:36:05;98339.41;;;18.97;92.29
55066;BME280;40964;42.114;24.220;2023-09-18T04:38:30;98339.41;;;18.97;92.65
55066;BME280;40964;42.114;24.220;2023-09-18T04:41:01;98331.63;;;18.90;93.16
55066;BME280;40964;42.114;24.220;2023-09-18T04:43:26;98343.38;;;18.94;93.13
55066;BME280;40964;42.114;24.220;2023-09-18T04:45:55;98337.22;;;18.94;92.00
55066;BME280;40964;42.114;24.220;2023-09-18T04:51:08;98348.19;;;18.97;91.51
55066;BME280;40964;42.114;24.220;2023-09-18T04:53:33;98352.47;;;18.98;91.64
55066;BME280;40964;42.114;24.220;2023-09-18T04:55:59;98346.34;;;18.98;91.38
55066;BME280;40964;42.114;24.220;2023-09-18T04:58:26;98347.41;;;18.97;91.03
55066;BME280;40964;42.114;24.220;2023-09-18T05:00:58;98351.19;;;19.06;91.26
55066;BME280;40964;42.114;24.220;2023-09-18T05:03:24;98354.94;;;19.10;91.51
55066;BME280;40964;42.114;24.220;2023-09-18T05:05:49;98351.22;;;19.11;90.67
55066;BME280;40964;42.114;24.220;2023-09-18T05:08:15;98346.72;;;19.17;90.61
55066;BME280;40964;42.114;24.220;2023-09-18T05:10:41;98353.66;;;19.23;89.69
55066;BME280;40964;42.114;24.220;2023-09-18T05:13:07;98342.25;;;19.27;88.95
55066;BME280;40964;42.114;24.220;2023-09-18T05:15:33;98339.31;;;19.29;87.74
55066;BME280;40964;42.114;24.220;2023-09-18T05:17:59;98348.94;;;19.40;86.89
55066;BME280;40964;42.114;24.220;2023-09-18T05:20:29;98343.09;;;19.38;85.82
55066;BME280;40964;42.114;24.220;2023-09-18T05:22:57;98346.84;;;19.42;85.66
55066;BME280;40964;42.114;24.220;2023-09-18T05:25:24;98345.53;;;19.50;85.67
55066;BME280;40964;42.114;24.220;2023-09-18T05:28:00;98346.91;;;19.52;85.82
55066;BME280;40964;42.114;24.220;2023-09-18T05:30:30;98347.22;;;19.61;87.38
55066;BME280;40964;42.114;24.220;2023-09-18T05:32:58;98349.38;;;19.64;85.55
55066;BME280;40964;42.114;24.220;2023-09-18T05:35:50;98347.50;;;19.65;83.16
55066;BME280;40964;42.114;24.220;2023-09-18T05:38:16;98341.88;;;19.66;82.42
55066;BME280;40964;42.114;24.220;2023-09-18T05:40:43;98342.47;;;19.73;81.44
55066;BME280;40964;42.114;24.220;2023-09-18T05:43:10;98355.28;;;19.76;81.50
55066;BME280;40964;42.114;24.220;2023-09-18T05:45:36;98347.03;;;19.78;81.10
55066;BME280;40964;42.114;24.220;2023-09-18T05:48:01;98356.63;;;19.79;80.76
55066;BME280;40964;42.114;24.220;2023-09-18T05:50:30;98353.16;;;19.78;81.09
55066;BME280;40964;42.114;24.220;2023-09-18T05:52:57;98353.97;;;19.84;80.49
55066;BME280;40964;42.114;24.220;2023-09-18T05:55:26;98360.13;;;19.95;83.19
55066;BME280;40964;42.114;24.220;2023-09-18T05:57:53;98363.63;;;20.00;80.03
55066;BME280;40964;42.114;24.220;2023-09-18T06:00:19;98359.09;;;20.06;79.22
55066;BME280;40964;42.114;24.220;2023-09-18T06:02:45;98360.19;;;20.05;79.30
55066;BME280;40964;42.114;24.220;2023-09-18T06:05:11;98366.03;;;20.02;79.63
55066;BME280;40964;42.114;24.220;2023-09-18T06:07:37;98370.31;;;19.98;79.37
55066;BME280;40964;42.114;24.220;2023-09-18T06:10:03;98371.63;;;19.90;78.54
55066;BME280;40964;42.114;24.220;2023-09-18T06:12:29;98368.13;;;19.95;78.97
55066;BME280;40964;42.114;24.220;2023-09-18T06:14:55;98369.22;;;19.94;79.18
55066;BME280;40964;42.114;24.220;2023-09-18T06:17:20;98375.66;;;20.08;78.88
55066;BME280;40964;42.114;24.220;2023-09-18T06:19:46;98378.06;;;20.09;78.09
55066;BME280;40964;42.114;24.220;2023-09-18T06:22:12;98389.25;;;19.96;78.69
55066;BME280;40964;42.114;24.220;2023-09-18T06:24:38;98379.09;;;19.93;78.95
55066;BME280;40964;42.114;24.220;2023-09-18T06:27:04;98380.13;;;19.82;78.80
55066;BME280;40964;42.114;24.220;2023-09-18T06:29:33;98377.19;;;19.78;78.28
55066;BME280;40964;42.114;24.220;2023-09-18T06:31:59;98384.13;;;19.84;78.86
55066;BME280;40964;42.114;24.220;2023-09-18T06:34:25;98380.44;;;19.96;78.73
55066;BME280;40964;42.114;24.220;2023-09-18T06:36:51;98372.44;;;20.01;78.79
55066;BME280;40964;42.114;24.220;2023-09-18T06:39:16;98379.66;;;20.00;78.03
55066;BME280;40964;42.114;24.220;2023-09-18T06:41:42;98382.34;;;20.05;78.65
55066;BME280;40964;42.114;24.220;2023-09-18T06:44:07;98382.66;;;20.24;78.07
55066;BME280;40964;42.114;24.220;2023-09-18T06:46:33;98385.31;;;20.39;78.71
55066;BME280;40964;42.114;24.220;2023-09-18T06:48:58;98373.63;;;20.56;79.93
55066;BME280;40964;42.114;24.220;2023-09-18T06:51:28;98377.63;;;20.53;75.92
55066;BME280;40964;42.114;24.220;2023-09-18T06:53:54;98366.66;;;20.65;75.36
55066;BME280;40964;42.114;24.220;2023-09-18T06:56:20;98386.75;;;20.67;73.99
55066;BME280;40964;42.114;24.220;2023-09-18T06:58:45;98381.91;;;20.75;73.55
55066;BME280;40964;42.114;24.220;2023-09-18T07:01:13;98380.56;;;20.92;73.35
55066;BME280;40964;42.114;24.220;2023-09-18T07:03:40;98380.00;;;21.16;74.10
55066;BME280;40964;42.114;24.220;2023-09-18T07:06:05;98375.44;;;21.37;72.68
55066;BME280;40964;42.114;24.220;2023-09-18T07:08:31;98376.25;;;21.32;71.96
55066;BME280;40964;42.114;24.220;2023-09-18T07:10:58;98378.41;;;21.30;71.58
55066;BME280;40964;42.114;24.220;2023-09-18T07:13:23;98381.34;;;21.29;72.50
55066;BME280;40964;42.114;24.220;2023-09-18T07:15:49;98378.88;;;21.47;70.82
55066;BME280;40964;42.114;24.220;2023-09-18T07:18:14;98382.03;;;21.65;71.59
55066;BME280;40964;42.114;24.220;2023-09-18T07:20:41;98380.38;;;21.79;70.94
55066;BME280;40964;42.114;24.220;2023-09-18T07:23:07;98361.91;;;21.72;69.92
55066;BME280;40964;42.114;24.220;2023-09-18T07:25:32;98384.41;;;21.76;69.53
55066;BME280;40964;42.114;24.220;2023-09-18T07:27:57;98391.53;;;21.96;69.17
55066;BME280;40964;42.114;24.220;2023-09-18T07:30:23;98379.38;;;22.19;68.96
55066;BME280;40964;42.114;24.220;2023-09-18T07:32:54;98372.84;;;21.81;68.89
55066;BME280;40964;42.114;24.220;2023-09-18T07:35:21;98380.59;;;21.88;69.15
55066;BME280;40964;42.114;24.220;2023-09-18T07:37:48;98371.03;;;21.76;68.67
55066;BME280;40964;42.114;24.220;2023-09-18T07:40:13;98376.84;;;21.83;68.72
55066;BME280;40964;42.114;24.220;2023-09-18T07:42:39;98377.41;;;21.86;68.75
55066;BME280;40964;42.114;24.220;2023-09-18T07:45:05;98376.84;;;21.89;70.15
55066;BME280;40964;42.114;24.220;2023-09-18T07:47:30;98375.22;;;21.93;68.62
55066;BME280;40964;42.114;24.220;2023-09-18T07:49:56;98371.66;;;22.13;69.03
55066;BME280;40964;42.114;24.220;2023-09-18T07:52:22;98376.97;;;22.23;67.75
55066;BME280;40964;42.114;24.220;2023-09-18T07:54:48;98371.22;;;22.40;67.09
55066;BME280;40964;42.114;24.220;2023-09-18T07:57:13;98375.13;;;22.57;67.25
55066;BME280;40964;42.114;24.220;2023-09-18T07:59:38;98376.19;;;22.56;67.33
55066;BME280;40964;42.114;24.220;2023-09-18T08:02:05;98367.53;;;22.64;67.48
55066;BME280;40964;42.114;24.220;2023-09-18T08:04:31;98363.53;;;22.62;67.09
55066;BME280;40964;42.114;24.220;2023-09-18T08:06:57;98362.38;;;22.73;67.12
55066;BME280;40964;42.114;24.220;2023-09-18T08:09:23;98356.44;;;23.10;67.03
55066;BME280;40964;42.114;24.220;2023-09-18T08:11:49;98356.16;;;23.36;66.61
55066;BME280;40964;42.114;24.220;2023-09-18T08:14:15;98342.38;;;23.42;64.17
55066;BME280;40964;42.114;24.220;2023-09-18T08:16:41;98355.00;;;23.42;64.55
55066;BME280;40964;42.114;24.220;2023-09-18T08:19:07;98361.41;;;23.22;65.26
55066;BME280;40964;42.114;24.220;2023-09-18T08:21:32;98348.00;;;23.46;65.00
55066;BME280;40964;42.114;24.220;2023-09-18T08:23:58;98348.13;;;23.60;63.10
55066;BME280;40964;42.114;24.220;2023-09-18T08:26:24;98346.78;;;23.33;62.37
55066;BME280;40964;42.114;24.220;2023-09-18T08:28:50;98343.44;;;23.46;63.87
55066;BME280;40964;42.114;24.220;2023-09-18T08:31:16;98339.28;;;23.54;62.10
55066;BME280;40964;42.114;24.220;2023-09-18T08:33:42;98334.28;;;23.47;62.59
55066;BME280;40964;42.114;24.220;2023-09-18T08:36:08;98345.38;;;23.65;61.62
55066;BME280;40964;42.114;24.220;2023-09-18T08:38:34;98350.50;;;23.85;61.09
55066;BME280;40964;42.114;24.220;2023-09-18T08:40:59;98351.88;;;23.83;61.80
55066;BME280;40964;42.114;24.220;2023-09-18T08:43:26;98348.97;;;23.98;61.55
55066;BME280;40964;42.114;24.220;2023-09-18T08:45:55;98353.50;;;23.60;62.64
55066;BME280;40964;42.114;24.220;2023-09-18T08:48:27;98339.22;;;23.64;61.82
55066;BME280;40964;42.114;24.220;2023-09-18T08:50:59;98345.19;;;23.56;62.08
55066;BME280;40964;42.114;24.220;2023-09-18T08:53:25;98331.47;;;23.58;61.52
55066;BME280;40964;42.114;24.220;2023-09-18T08:55:51;98338.78;;;23.52;62.48
55066;BME280;40964;42.114;24.220;2023-09-18T08:58:16;98344.63;;;23.59;61.87
55066;BME280;40964;42.114;24.220;2023-09-18T09:00:44;98342.47;;;23.61;61.58
55066;BME280;40964;42.114;24.220;2023-09-18T09:03:10;98334.34;;;23.42;61.79
55066;BME280;40964;42.114;24.220;2023-09-18T09:05:35;98336.00;;;23.38;61.74
55066;BME280;40964;42.114;24.220;2023-09-18T09:08:01;98331.06;;;23.69;61.58
55066;BME280;40964;42.114;24.220;2023-09-18T09:10:26;98329.19;;;23.70;60.12
55066;BME280;40964;42.114;24.220;2023-09-18T09:12:54;98324.88;;;23.93;59.71
55066;BME280;40964;42.114;24.220;2023-09-18T09:15:25;98326.09;;;24.19;58.59
55066;BME280;40964;42.114;24.220;2023-09-18T09:18:01;98323.84;;;24.45;58.47
55066;BME280;40964;42.114;24.220;2023-09-18T09:20:26;98333.97;;;24.67;56.91
55066;BME280;40964;42.114;24.220;2023-09-18T09:22:52;98326.72;;;24.49;56.32
55066;BME280;40964;42.114;24.220;2023-09-18T09:25:26;98325.16;;;24.61;57.32
55066;BME280;40964;42.114;24.220;2023-09-18T09:27:53;98321.84;;;24.83;59.38
55066;BME280;40964;42.114;24.220;2023-09-18T09:30:26;98326.63;;;24.86;55.21
55066;BME280;40964;42.114;24.220;2023-09-18T09:32:54;98329.03;;;25.02;55.28
55066;BME280;40964;42.114;24.220;2023-09-18T09:37:50;98326.25;;;24.93;54.45
55066;BME280;40964;42.114;24.220;2023-09-18T09:40:21;98331.38;;;25.22;54.72
55066;BME280;40964;42.114;24.220;2023-09-18T09:42:47;98313.88;;;24.92;54.12
55066;BME280;40964;42.114;24.220;2023-09-18T09:45:15;98319.00;;;25.21;53.87
55066;BME280;40964;42.114;24.220;2023-09-18T09:47:43;98312.75;;;25.26;52.02
55066;BME280;40964;42.114;24.220;2023-09-18T09:50:11;98310.06;;;25.26;54.10
55066;BME280;40964;42.114;24.220;2023-09-18T09:52:46;98302.88;;;25.35;53.54
55066;BME280;40964;42.114;24.220;2023-09-18T09:55:31;98296.25;;;25.55;52.71
55066;BME280;40964;42.114;24.220;2023-09-18T09:58:00;98308.63;;;25.42;52.63
55066;BME280;40964;42.114;24.220;2023-09-18T10:00:45;98296.97;;;25.46;50.40
55066;BME280;40964;42.114;24.220;2023-09-18T10:03:14;98300.25;;;25.71;50.81
55066;BME280;40964;42.114;24.220;2023-09-18T10:05:42;98296.22;;;25.68;51.87
55066;BME280;40964;42.114;24.220;2023-09-18T10:08:15;98293.03;;;25.66;51.12
55066;BME280;40964;42.114;24.220;2023-09-18T10:10:54;98301.25;;;25.75;51.83
55066;BME280;40964;42.114;24.220;2023-09-18T10:13:39;98290.78;;;25.73;50.68
55066;BME280;40964;42.114;24.220;2023-09-18T10:16:06;98290.75;;;26.10;48.45
55066;BME280;40964;42.114;24.220;2023-09-18T10:18:38;98290.47;;;26.34;50.91
55066;BME280;40964;42.114;24.220;2023-09-18T10:21:27;98289.16;;;26.31;50.47
55066;BME280;40964;42.114;24.220;2023-09-18T10:24:08;98291.69;;;26.27;50.63
55066;BME280;40964;42.114;24.220;2023-09-18T10:26:42;98288.16;;;26.04;50.46
55066;BME280;40964;42.114;24.220;2023-09-18T10:29:13;98290.44;;;25.89;51.86
55066;BME280;40964;42.114;24.220;2023-09-18T10:31:40;98293.88;;;25.53;51.89
55066;BME280;40964;42.114;24.220;2023-09-18T10:34:06;98294.88;;;25.30;52.31
55066;BME280;40964;42.114;24.220;2023-09-18T10:36:34;98293.56;;;25.00;53.93
55066;BME280;40964;42.114;24.220;2023-09-18T10:39:00;98288.66;;;24.74;53.92
55066;BME280;40964;42.114;24.220;2023-09-18T10:41:26;98283.19;;;24.93;53.88
55066;BME280;40964;42.114;24.220;2023-09-18T10:43:53;98286.00;;;25.29;54.09
55066;BME280;40964;42.114;24.220;2023-09-18T10:46:19;98280.28;;;25.58;52.11
55066;BME280;40964;42.114;24.220;2023-09-18T10:48:47;98285.25;;;25.79;53.09
55066;BME280;40964;42.114;24.220;2023-09-18T10:51:13;98279.31;;;25.40;51.60
55066;BME280;40964;42.114;24.220;2023-09-18T10:53:40;98284.03;;;25.21;52.73
55066;BME280;40964;42.114;24.220;2023-09-18T10:56:05;98282.97;;;25.58;53.12
55066;BME280;40964;42.114;24.220;2023-09-18T10:58:32;98275.22;;;25.70;52.73
55066;BME280;40964;42.114;24.220;2023-09-18T11:01:04;98272.22;;;25.72;53.31
55066;BME280;40964;42.114;24.220;2023-09-18T11:03:33;98268.50;;;25.82;51.66
55066;BME280;40964;42.114;24.220;2023-09-18T11:06:05;98269.56;;;25.44;51.44
55066;BME280;40964;42.114;24.220;2023-09-18T11:08:49;98267.91;;;24.88;52.91
55066;BME280;40964;42.114;24.220;2023-09-18T11:11:18;98267.38;;;24.59;53.08
55066;BME280;40964;42.114;24.220;2023-09-18T11:13:52;98263.41;;;24.56;55.18
55066;BME280;40964;42.114;24.220;2023-09-18T11:18:53;98258.25;;;24.87;53.53
55066;BME280;40964;42.114;24.220;2023-09-18T11:21:27;98248.41;;;25.38;52.39
55066;BME280;40964;42.114;24.220;2023-09-18T11:24:02;98259.34;;;25.55;52.05
55066;BME280;40964;42.114;24.220;2023-09-18T11:26:36;98260.59;;;25.85;50.01
55066;BME280;40964;42.114;24.220;2023-09-18T11:29:05;98256.44;;;26.01;49.66
55066;BME280;40964;42.114;24.220;2023-09-18T11:31:53;98258.78;;;26.17;47.50
55066;BME280;40964;42.114;24.220;2023-09-18T11:34:29;98251.72;;;26.29;48.48
55066;BME280;40964;42.114;24.220;2023-09-18T11:36:57;98247.09;;;26.44;47.54
55066;BME280;40964;42.114;24.220;2023-09-18T11:39:40;98249.41;;;25.92;48.09
55066;BME280;40964;42.114;24.220;2023-09-18T11:42:26;98248.84;;;25.67;47.00
55066;BME280;40964;42.114;24.220;2023-09-18T11:44:52;98248.53;;;26.05;48.70
55066;BME280;40964;42.114;24.220;2023-09-18T11:47:24;98236.81;;;26.32;46.77
55066;BME280;40964;42.114;24.220;2023-09-18T11:49:54;98231.50;;;26.72;46.47
55066;BME280;40964;42.114;24.220;2023-09-18T11:52:23;98229.66;;;26.81;44.71
55066;BME280;40964;42.114;24.220;2023-09-18T11:54:48;98219.50;;;26.95;46.51
55066;BME280;40964;42.114;24.220;2023-09-18T11:57:15;98214.84;;;27.18;44.98
55066;BME280;40964;42.114;24.220;2023-09-18T11:59:41;98215.69;;;27.36;43.82
55066;BME280;40964;42.114;24.220;2023-09-18T12:02:27;98214.59;;;27.54;44.37
55066;BME280;40964;42.114;24.220;2023-09-18T12:04:56;98209.66;;;27.48;41.75
55066;BME280;40964;42.114;24.220;2023-09-18T12:07:22;98215.22;;;27.51;42.25
55066;BME280;40964;42.114;24.220;2023-09-18T12:09:49;98213.13;;;27.48;41.00
55066;BME280;40964;42.114;24.220;2023-09-18T12:12:16;98206.75;;;27.18;42.68
55066;BME280;40964;42.114;24.220;2023-09-18T12:14:42;98201.06;;;27.54;42.69
55066;BME280;40964;42.114;24.220;2023-09-18T12:17:14;98192.66;;;27.47;42.35
55066;BME280;40964;42.114;24.220;2023-09-18T12:19:50;98195.25;;;27.69;42.10
55066;BME280;40964;42.114;24.220;2023-09-18T12:22:23;98197.25;;;27.55;40.83
55066;BME280;40964;42.114;24.220;2023-09-18T12:24:48;98194.56;;;27.55;41.89
55066;BME280;40964;42.114;24.220;2023-09-18T12:27:14;98195.94;;;27.18;41.30
55066;BME280;40964;42.114;24.220;2023-09-18T12:29:39;98194.84;;;26.71;42.45
55066;BME280;40964;42.114;24.220;2023-09-18T12:32:09;98193.66;;;26.54;42.04
55066;BME280;40964;42.114;24.220;2023-09-18T12:34:40;98192.66;;;26.50;42.71
55066;BME280;40964;42.114;24.220;2023-09-18T12:37:08;98182.97;;;26.80;43.83
55066;BME280;40964;42.114;24.220;2023-09-18T12:39:36;98182.34;;;26.92;41.10
55066;BME280;40964;42.114;24.220;2023-09-18T12:42:02;98181.88;;;26.90;41.47
55066;BME280;40964;42.114;24.220;2023-09-18T12:44:29;98182.84;;;26.94;43.40
55066;BME280;40964;42.114;24.220;2023-09-18T12:46:54;98182.13;;;27.20;40.29
55066;BME280;40964;42.114;24.220;2023-09-18T12:49:21;98179.75;;;27.27;42.11
55066;BME280;40964;42.114;24.220;2023-09-18T12:51:56;98173.69;;;27.12;42.29
55066;BME280;40964;42.114;24.220;2023-09-18T12:54:45;98179.09;;;26.64;42.50
55066;BME280;40964;42.114;24.220;2023-09-18T12:57:19;98166.16;;;26.44;42.67
55066;BME280;40964;42.114;24.220;2023-09-18T12:59:45;98179.00;;;26.16;43.10
55066;BME280;40964;42.114;24.220;2023-09-18T13:02:16;98168.69;;;26.18;42.48